METAR Data
IDs: Format: Raw Decoded Include TAF

Data at: 0419 UTC 20 Oct 2018

PANW 200356Z AUTO 25005KT 10SM CLR 08/02 A2930 RMK AO2 SLP937 T00780017
PANW 200256Z AUTO 27005KT 10SM CLR 09/02 A2927 RMK AO2 SLP928 T00940022 53008
PANW 200156Z AUTO 27007KT 10SM CLR 10/02 A2927 RMK AO2 SLP927 T01000017
PANW 200056Z AUTO 28007KT 10SM CLR 11/03 A2926 RMK AO2 SLP924 T01060028
PANW 192356Z AUTO 27013KT 10SM CLR 09/02 A2925 RMK AO2 SLP920 T00940022 10100 20028 55001
PANW 192256Z AUTO 31011KT 10SM CLR 09/01 A2924 RMK AO2 SLP917 T00940011
PANW 192156Z AUTO 30013G20KT 10SM CLR 08/02 A2925 RMK AO2 SLP920 T00780017
PANW 192056Z AUTO 28011KT 10SM CLR 06/03 A2925 RMK AO2 SLP922 T00610033 58014
PANW 191956Z AUTO 29009KT 10SM CLR 06/03 A2927 RMK AO2 SLP928 T00560028
PANW 191756Z AUTO 31010KT 10SM CLR 03/02 A2929 RMK AO2 SLP936 T00330017 10033 20022 56027
PANW 191656Z AUTO 32011KT 10SM CLR 03/02 A2931 RMK AO2 SLP940 T00330017
PANW 191556Z AUTO 33010KT 10SM CLR 02/01 A2934 RMK AO2 SLP951 T00220011 FZRANO
PANW 191456Z AUTO 33009KT 10SM CLR 02/01 A2937 RMK AO2 SLP963 T00220011 56035 FZRANO
PANW 191356Z AUTO 34009KT 10SM BKN110 03/02 A2940 RMK AO2 SLP973 T00280017
PANW 191256Z AUTO 33009KT 10SM BKN065 BKN080 OVC110 03/02 A2944 RMK AO2 SLP986 T00280017
PANW 191156Z AUTO 34008KT 10SM OVC065 02/02 A2948 RMK AO2 SLP998 70007 T00220017 10067 20017 56027 FZRANO
PANW 191056Z AUTO 36008KT 10SM FEW060 02/02 A2951 RMK AO2 SLP007 T00220017 FZRANO
PANW 190956Z AUTO 01006KT 10SM CLR 02/02 A2953 RMK AO2 SLP016 T00220017 FZRANO
PANW 190856Z AUTO 01005KT 10SM CLR 04/03 A2956 RMK AO2 SLP026 T00390033 401060039 58019
PANW 190756Z AUTO 08007KT 10SM CLR 05/04 A2958 RMK AO2 SLP032 T00500039
PANW 190656Z AUTO 08008KT 10SM BKN047 06/04 A2960 RMK AO2 SLP039 T00560044
PANW 190607Z AUTO 09009KT 10SM FEW011 BKN047 07/06 A2961 RMK AO2
PANW 190556Z AUTO 08008KT 10SM BKN013 OVC047 07/06 A2961 RMK AO2 RAE30 SLP046 P0001 60007 T00670056 10100 20067 58008
PANW 190546Z AUTO 08007KT 10SM SCT013 BKN033 OVC047 07/06 A2962 RMK AO2 RAE30 P0001
PANW 190534Z AUTO 08005KT 10SM BKN013 OVC030 07/06 A2962 RMK AO2 RAE30 P0001
PANW 190456Z AUTO 11009KT 10SM -RA BKN038 OVC055 07/06 A2963 RMK AO2 RAB37 SLP052 P0000 T00720056
PANW 190356Z AUTO 08008KT 10SM FEW045 BKN060 07/06 A2963 RMK AO2 SLP052 T00720056
PANW 190256Z AUTO 09006KT 10SM SCT045 SCT085 BKN110 07/05 A2964 RMK AO2 RAE48 SLP054 P0003 60006 T00720050 58008
PANW 190056Z AUTO 11009KT 10SM BKN039 BKN050 OVC060 09/05 A2965 RMK AO2 SLP059 T00940050
PANW 182356Z AUTO 11010KT 10SM BKN033 BKN070 OVC090 10/04 A2966 RMK AO2 SLP061 T01000044 10106 20067 58012
PANW 182256Z AUTO 10008KT 10SM BKN070 OVC085 09/04 A2968 RMK AO2 SLP069 T00940039
PANW 182156Z AUTO 10010KT 10SM BKN070 OVC085 09/04 A2969 RMK AO2 SLP071 T00890039
PANW 182056Z AUTO 10009KT 10SM OVC060 08/04 A2970 RMK AO2 SLP074 T00830039 50005
PANW 181956Z AUTO 10010KT 10SM BKN049 OVC060 07/04 A2970 RMK AO2 SLP074 T00720044
PANW 181856Z AUTO 10007KT 10SM BKN046 OVC060 07/04 A2969 RMK AO2 SLP073 T00670044
PANW 181756Z AUTO 10006KT 10SM BKN042 OVC049 07/04 A2968 RMK AO2 SLP069 60000 T00670044 10067 20056 51008
PANW 181656Z AUTO 11007KT 10SM OVC039 06/04 A2968 RMK AO2 SLP067 T00610044